sensor_id;sensor_type;location;lat;lon;timestamp;P1;durP1;ratioP1;P2;durP2;ratioP2
54121;SDS011;40029;58.708;50.190;2023-03-08T00:01:39;22.02;;;8.18;;
54121;SDS011;40029;58.708;50.190;2023-03-08T00:04:10;16.02;;;6.28;;
54121;SDS011;40029;58.708;50.190;2023-03-08T00:06:41;15.90;;;7.15;;
54121;SDS011;40029;58.708;50.190;2023-03-08T00:09:12;20.08;;;7.43;;
54121;SDS011;40029;58.708;50.190;2023-03-08T00:11:43;19.23;;;6.85;;
54121;SDS011;40029;58.708;50.190;2023-03-08T00:14:15;23.02;;;7.10;;
54121;SDS011;40029;58.708;50.190;2023-03-08T00:16:47;20.20;;;7.95;;
54121;SDS011;40029;58.708;50.190;2023-03-08T00:19:18;21.05;;;8.07;;
54121;SDS011;40029;58.708;50.190;2023-03-08T00:21:49;20.35;;;6.97;;
54121;SDS011;40029;58.708;50.190;2023-03-08T00:24:20;13.65;;;6.85;;
54121;SDS011;40029;58.708;50.190;2023-03-08T00:26:51;14.18;;;6.35;;
54121;SDS011;40029;58.708;50.190;2023-03-08T00:29:22;15.43;;;6.40;;
54121;SDS011;40029;58.708;50.190;2023-03-08T00:31:53;14.43;;;6.32;;
54121;SDS011;40029;58.708;50.190;2023-03-08T00:34:24;15.43;;;5.07;;
54121;SDS011;40029;58.708;50.190;2023-03-08T00:36:55;15.05;;;6.13;;
54121;SDS011;40029;58.708;50.190;2023-03-08T00:39:26;17.23;;;6.72;;
54121;SDS011;40029;58.708;50.190;2023-03-08T00:41:57;14.15;;;6.32;;
54121;SDS011;40029;58.708;50.190;2023-03-08T00:44:28;10.10;;;5.95;;
54121;SDS011;40029;58.708;50.190;2023-03-08T00:46:59;14.07;;;5.53;;
54121;SDS011;40029;58.708;50.190;2023-03-08T00:49:30;11.40;;;5.68;;
54121;SDS011;40029;58.708;50.190;2023-03-08T00:52:01;10.07;;;4.70;;
54121;SDS011;40029;58.708;50.190;2023-03-08T00:54:33;10.35;;;5.22;;
54121;SDS011;40029;58.708;50.190;2023-03-08T00:57:04;8.30;;;4.93;;
54121;SDS011;40029;58.708;50.190;2023-03-08T00:59:36;8.10;;;3.83;;
54121;SDS011;40029;58.708;50.190;2023-03-08T01:02:08;7.25;;;3.90;;
54121;SDS011;40029;58.708;50.190;2023-03-08T01:04:39;7.85;;;3.58;;
54121;SDS011;40029;58.708;50.190;2023-03-08T01:07:10;5.47;;;3.33;;
54121;SDS011;40029;58.708;50.190;2023-03-08T01:09:42;5.93;;;3.03;;
54121;SDS011;40029;58.708;50.190;2023-03-08T01:12:13;5.72;;;3.40;;
54121;SDS011;40029;58.708;50.190;2023-03-08T01:14:44;10.05;;;4.57;;
54121;SDS011;40029;58.708;50.190;2023-03-08T01:17:17;9.85;;;4.45;;
54121;SDS011;40029;58.708;50.190;2023-03-08T01:19:48;9.07;;;3.97;;
54121;SDS011;40029;58.708;50.190;2023-03-08T01:22:21;9.20;;;4.10;;
54121;SDS011;40029;58.708;50.190;2023-03-08T01:24:52;10.05;;;4.53;;
54121;SDS011;40029;58.708;50.190;2023-03-08T01:27:23;13.05;;;4.28;;
54121;SDS011;40029;58.708;50.190;2023-03-08T01:29:54;11.00;;;4.57;;
54121;SDS011;40029;58.708;50.190;2023-03-08T01:32:27;5.47;;;3.90;;
54121;SDS011;40029;58.708;50.190;2023-03-08T01:35:17;7.60;;;4.38;;
54121;SDS011;40029;58.708;50.190;2023-03-08T01:37:51;9.32;;;4.72;;
54121;SDS011;40029;58.708;50.190;2023-03-08T01:40:43;7.25;;;3.90;;
54121;SDS011;40029;58.708;50.190;2023-03-08T01:43:21;8.40;;;4.65;;
54121;SDS011;40029;58.708;50.190;2023-03-08T01:46:02;9.57;;;5.25;;
54121;SDS011;40029;58.708;50.190;2023-03-08T01:51:38;9.80;;;5.28;;
54121;SDS011;40029;58.708;50.190;2023-03-08T01:54:12;9.95;;;4.80;;
54121;SDS011;40029;58.708;50.190;2023-03-08T01:56:45;9.68;;;4.55;;
54121;SDS011;40029;58.708;50.190;2023-03-08T02:01:51;8.27;;;5.00;;
54121;SDS011;40029;58.708;50.190;2023-03-08T02:04:24;9.98;;;5.07;;
54121;SDS011;40029;58.708;50.190;2023-03-08T02:06:56;9.13;;;5.60;;
54121;SDS011;40029;58.708;50.190;2023-03-08T02:09:28;9.13;;;5.80;;
54121;SDS011;40029;58.708;50.190;2023-03-08T02:12:03;8.90;;;5.45;;
54121;SDS011;40029;58.708;50.190;2023-03-08T02:14:39;8.07;;;5.33;;
54121;SDS011;40029;58.708;50.190;2023-03-08T02:17:13;14.83;;;7.07;;
54121;SDS011;40029;58.708;50.190;2023-03-08T02:19:46;12.07;;;5.90;;
54121;SDS011;40029;58.708;50.190;2023-03-08T02:22:21;14.37;;;6.70;;
54121;SDS011;40029;58.708;50.190;2023-03-08T02:24:53;14.45;;;6.13;;
54121;SDS011;40029;58.708;50.190;2023-03-08T02:27:25;12.70;;;5.63;;
54121;SDS011;40029;58.708;50.190;2023-03-08T02:29:58;11.13;;;6.30;;
54121;SDS011;40029;58.708;50.190;2023-03-08T02:32:29;14.63;;;6.20;;
54121;SDS011;40029;58.708;50.190;2023-03-08T02:35:18;14.17;;;6.27;;
54121;SDS011;40029;58.708;50.190;2023-03-08T02:37:49;14.65;;;6.03;;
54121;SDS011;40029;58.708;50.190;2023-03-08T02:40:20;17.43;;;6.10;;
54121;SDS011;40029;58.708;50.190;2023-03-08T02:43:10;15.65;;;7.05;;
54121;SDS011;40029;58.708;50.190;2023-03-08T02:45:43;11.10;;;7.10;;
54121;SDS011;40029;58.708;50.190;2023-03-08T02:48:15;11.80;;;6.73;;
54121;SDS011;40029;58.708;50.190;2023-03-08T02:50:46;19.08;;;6.15;;
54121;SDS011;40029;58.708;50.190;2023-03-08T02:53:17;17.00;;;8.73;;
54121;SDS011;40029;58.708;50.190;2023-03-08T02:55:48;15.32;;;7.68;;
54121;SDS011;40029;58.708;50.190;2023-03-08T02:58:20;13.13;;;9.68;;
54121;SDS011;40029;58.708;50.190;2023-03-08T03:00:51;15.18;;;10.77;;
54121;SDS011;40029;58.708;50.190;2023-03-08T03:03:22;15.95;;;8.68;;
54121;SDS011;40029;58.708;50.190;2023-03-08T03:05:54;15.70;;;8.85;;
54121;SDS011;40029;58.708;50.190;2023-03-08T03:08:32;19.95;;;10.73;;
54121;SDS011;40029;58.708;50.190;2023-03-08T03:11:09;19.23;;;12.85;;
54121;SDS011;40029;58.708;50.190;2023-03-08T03:13:44;24.38;;;10.75;;
54121;SDS011;40029;58.708;50.190;2023-03-08T03:16:18;21.30;;;8.05;;
54121;SDS011;40029;58.708;50.190;2023-03-08T03:18:53;17.65;;;6.93;;
54121;SDS011;40029;58.708;50.190;2023-03-08T03:21:25;14.10;;;6.38;;
54121;SDS011;40029;58.708;50.190;2023-03-08T03:23:56;14.80;;;6.60;;
54121;SDS011;40029;58.708;50.190;2023-03-08T03:26:36;10.00;;;4.60;;
54121;SDS011;40029;58.708;50.190;2023-03-08T03:29:27;7.03;;;4.40;;
54121;SDS011;40029;58.708;50.190;2023-03-08T03:32:08;9.07;;;5.05;;
54121;SDS011;40029;58.708;50.190;2023-03-08T03:34:39;6.68;;;3.75;;
54121;SDS011;40029;58.708;50.190;2023-03-08T03:37:11;9.65;;;4.18;;
54121;SDS011;40029;58.708;50.190;2023-03-08T03:40:01;7.28;;;4.15;;
54121;SDS011;40029;58.708;50.190;2023-03-08T03:42:34;10.35;;;5.13;;
54121;SDS011;40029;58.708;50.190;2023-03-08T03:45:13;10.20;;;5.80;;
54121;SDS011;40029;58.708;50.190;2023-03-08T03:47:44;10.70;;;5.95;;
54121;SDS011;40029;58.708;50.190;2023-03-08T03:50:16;15.60;;;8.00;;
54121;SDS011;40029;58.708;50.190;2023-03-08T03:53:10;10.80;;;5.95;;
54121;SDS011;40029;58.708;50.190;2023-03-08T03:56:03;10.23;;;5.22;;
54121;SDS011;40029;58.708;50.190;2023-03-08T03:58:56;15.57;;;6.53;;
54121;SDS011;40029;58.708;50.190;2023-03-08T04:01:29;15.27;;;5.70;;
54121;SDS011;40029;58.708;50.190;2023-03-08T04:04:12;16.90;;;5.70;;
54121;SDS011;40029;58.708;50.190;2023-03-08T04:06:46;25.80;;;7.72;;
54121;SDS011;40029;58.708;50.190;2023-03-08T04:09:20;21.52;;;7.80;;
54121;SDS011;40029;58.708;50.190;2023-03-08T04:12:04;23.55;;;7.95;;
54121;SDS011;40029;58.708;50.190;2023-03-08T04:14:37;21.23;;;7.72;;
54121;SDS011;40029;58.708;50.190;2023-03-08T04:17:10;17.67;;;6.95;;
54121;SDS011;40029;58.708;50.190;2023-03-08T04:19:47;19.58;;;5.88;;
54121;SDS011;40029;58.708;50.190;2023-03-08T04:22:20;16.98;;;6.30;;
54121;SDS011;40029;58.708;50.190;2023-03-08T04:24:56;24.90;;;6.30;;
54121;SDS011;40029;58.708;50.190;2023-03-08T04:27:36;11.88;;;5.55;;
54121;SDS011;40029;58.708;50.190;2023-03-08T04:30:08;17.52;;;7.68;;
54121;SDS011;40029;58.708;50.190;2023-03-08T04:32:39;22.55;;;9.80;;
54121;SDS011;40029;58.708;50.190;2023-03-08T04:35:11;19.63;;;6.28;;
54121;SDS011;40029;58.708;50.190;2023-03-08T04:38:01;11.15;;;5.25;;
54121;SDS011;40029;58.708;50.190;2023-03-08T04:40:33;11.55;;;6.65;;
54121;SDS011;40029;58.708;50.190;2023-03-08T04:43:25;12.82;;;6.15;;
54121;SDS011;40029;58.708;50.190;2023-03-08T04:45:56;12.63;;;5.60;;
54121;SDS011;40029;58.708;50.190;2023-03-08T04:48:28;9.85;;;6.13;;
54121;SDS011;40029;58.708;50.190;2023-03-08T04:50:59;11.00;;;5.53;;
54121;SDS011;40029;58.708;50.190;2023-03-08T04:53:32;8.85;;;5.25;;
54121;SDS011;40029;58.708;50.190;2023-03-08T04:56:05;14.90;;;6.38;;
54121;SDS011;40029;58.708;50.190;2023-03-08T04:58:36;13.98;;;6.28;;
54121;SDS011;40029;58.708;50.190;2023-03-08T05:01:09;9.60;;;5.45;;
54121;SDS011;40029;58.708;50.190;2023-03-08T05:03:44;13.27;;;5.90;;
54121;SDS011;40029;58.708;50.190;2023-03-08T05:06:16;11.27;;;6.05;;
54121;SDS011;40029;58.708;50.190;2023-03-08T05:08:50;15.52;;;6.97;;
54121;SDS011;40029;58.708;50.190;2023-03-08T05:11:39;18.40;;;5.13;;
54121;SDS011;40029;58.708;50.190;2023-03-08T05:14:11;9.10;;;4.63;;
54121;SDS011;40029;58.708;50.190;2023-03-08T05:16:42;19.10;;;5.43;;
54121;SDS011;40029;58.708;50.190;2023-03-08T05:19:14;10.43;;;4.40;;
54121;SDS011;40029;58.708;50.190;2023-03-08T05:21:51;9.65;;;4.65;;
54121;SDS011;40029;58.708;50.190;2023-03-08T05:24:23;18.45;;;5.25;;
54121;SDS011;40029;58.708;50.190;2023-03-08T05:26:54;15.63;;;4.85;;
54121;SDS011;40029;58.708;50.190;2023-03-08T05:29:25;10.43;;;4.90;;
54121;SDS011;40029;58.708;50.190;2023-03-08T05:31:57;10.82;;;4.22;;
54121;SDS011;40029;58.708;50.190;2023-03-08T05:34:48;4.60;;;3.33;;
54121;SDS011;40029;58.708;50.190;2023-03-08T05:37:28;7.22;;;3.63;;
54121;SDS011;40029;58.708;50.190;2023-03-08T05:40:04;8.18;;;5.13;;
54121;SDS011;40029;58.708;50.190;2023-03-08T05:42:39;6.63;;;4.47;;
54121;SDS011;40029;58.708;50.190;2023-03-08T05:45:11;11.77;;;4.43;;
54121;SDS011;40029;58.708;50.190;2023-03-08T05:47:43;8.32;;;4.60;;
54121;SDS011;40029;58.708;50.190;2023-03-08T05:50:15;9.55;;;4.97;;
54121;SDS011;40029;58.708;50.190;2023-03-08T05:52:48;9.15;;;5.38;;
54121;SDS011;40029;58.708;50.190;2023-03-08T05:55:25;11.70;;;5.68;;
54121;SDS011;40029;58.708;50.190;2023-03-08T05:57:56;8.02;;;4.53;;
54121;SDS011;40029;58.708;50.190;2023-03-08T06:00:27;12.98;;;5.00;;
54121;SDS011;40029;58.708;50.190;2023-03-08T06:03:01;8.93;;;3.70;;
54121;SDS011;40029;58.708;50.190;2023-03-08T06:05:34;9.70;;;4.78;;
54121;SDS011;40029;58.708;50.190;2023-03-08T06:08:23;7.00;;;4.60;;
54121;SDS011;40029;58.708;50.190;2023-03-08T06:10:55;13.57;;;5.72;;
54121;SDS011;40029;58.708;50.190;2023-03-08T06:13:26;11.30;;;6.05;;
54121;SDS011;40029;58.708;50.190;2023-03-08T06:15:58;11.30;;;5.95;;
54121;SDS011;40029;58.708;50.190;2023-03-08T06:18:32;14.57;;;6.35;;
54121;SDS011;40029;58.708;50.190;2023-03-08T06:21:11;10.85;;;5.82;;
54121;SDS011;40029;58.708;50.190;2023-03-08T06:23:44;12.38;;;6.07;;
54121;SDS011;40029;58.708;50.190;2023-03-08T06:26:16;11.43;;;5.18;;
54121;SDS011;40029;58.708;50.190;2023-03-08T06:28:48;8.20;;;5.25;;
54121;SDS011;40029;58.708;50.190;2023-03-08T06:31:20;10.82;;;6.18;;
54121;SDS011;40029;58.708;50.190;2023-03-08T06:33:51;7.35;;;5.75;;
54121;SDS011;40029;58.708;50.190;2023-03-08T06:36:26;19.77;;;9.40;;
54121;SDS011;40029;58.708;50.190;2023-03-08T06:38:58;12.07;;;6.07;;
54121;SDS011;40029;58.708;50.190;2023-03-08T06:41:30;15.48;;;7.05;;
54121;SDS011;40029;58.708;50.190;2023-03-08T06:44:03;15.48;;;7.60;;
54121;SDS011;40029;58.708;50.190;2023-03-08T06:46:34;19.38;;;7.95;;
54121;SDS011;40029;58.708;50.190;2023-03-08T06:49:05;14.50;;;7.30;;
54121;SDS011;40029;58.708;50.190;2023-03-08T06:51:38;12.25;;;6.13;;
54121;SDS011;40029;58.708;50.190;2023-03-08T06:54:28;15.18;;;6.55;;
54121;SDS011;40029;58.708;50.190;2023-03-08T06:57:17;14.55;;;7.13;;
54121;SDS011;40029;58.708;50.190;2023-03-08T06:59:48;17.20;;;8.43;;
54121;SDS011;40029;58.708;50.190;2023-03-08T07:02:19;14.85;;;7.30;;
54121;SDS011;40029;58.708;50.190;2023-03-08T07:04:50;20.63;;;9.52;;
54121;SDS011;40029;58.708;50.190;2023-03-08T07:07:21;16.77;;;9.05;;
54121;SDS011;40029;58.708;50.190;2023-03-08T07:09:53;18.33;;;8.95;;
54121;SDS011;40029;58.708;50.190;2023-03-08T07:12:24;18.67;;;8.35;;
54121;SDS011;40029;58.708;50.190;2023-03-08T07:14:55;20.67;;;8.68;;
54121;SDS011;40029;58.708;50.190;2023-03-08T07:17:26;16.17;;;7.93;;
54121;SDS011;40029;58.708;50.190;2023-03-08T07:19:57;21.33;;;8.43;;
54121;SDS011;40029;58.708;50.190;2023-03-08T07:22:30;20.23;;;8.52;;
54121;SDS011;40029;58.708;50.190;2023-03-08T07:25:01;15.45;;;7.53;;
54121;SDS011;40029;58.708;50.190;2023-03-08T07:27:33;14.90;;;7.35;;
54121;SDS011;40029;58.708;50.190;2023-03-08T07:30:23;13.60;;;7.10;;
54121;SDS011;40029;58.708;50.190;2023-03-08T07:32:54;15.10;;;7.80;;
54121;SDS011;40029;58.708;50.190;2023-03-08T07:35:25;14.90;;;8.55;;
54121;SDS011;40029;58.708;50.190;2023-03-08T07:37:57;18.80;;;7.47;;
54121;SDS011;40029;58.708;50.190;2023-03-08T07:40:28;13.00;;;7.03;;
54121;SDS011;40029;58.708;50.190;2023-03-08T07:42:59;15.02;;;7.20;;
54121;SDS011;40029;58.708;50.190;2023-03-08T07:45:38;16.83;;;8.15;;
54121;SDS011;40029;58.708;50.190;2023-03-08T07:48:09;25.00;;;9.73;;
54121;SDS011;40029;58.708;50.190;2023-03-08T07:50:41;19.92;;;8.88;;
54121;SDS011;40029;58.708;50.190;2023-03-08T07:53:12;17.80;;;8.80;;
54121;SDS011;40029;58.708;50.190;2023-03-08T07:55:43;20.50;;;8.18;;
54121;SDS011;40029;58.708;50.190;2023-03-08T07:58:32;22.13;;;8.68;;
54121;SDS011;40029;58.708;50.190;2023-03-08T08:01:22;22.38;;;8.93;;
54121;SDS011;40029;58.708;50.190;2023-03-08T08:03:53;27.42;;;8.35;;
54121;SDS011;40029;58.708;50.190;2023-03-08T08:06:25;15.68;;;7.75;;
54121;SDS011;40029;58.708;50.190;2023-03-08T08:08:57;16.85;;;8.93;;
54121;SDS011;40029;58.708;50.190;2023-03-08T08:11:28;15.32;;;8.25;;
54121;SDS011;40029;58.708;50.190;2023-03-08T08:14:00;16.80;;;8.20;;
54121;SDS011;40029;58.708;50.190;2023-03-08T08:16:31;19.10;;;7.97;;
54121;SDS011;40029;58.708;50.190;2023-03-08T08:19:03;23.00;;;9.20;;
54121;SDS011;40029;58.708;50.190;2023-03-08T08:21:34;14.55;;;7.80;;
54121;SDS011;40029;58.708;50.190;2023-03-08T08:24:06;18.30;;;8.43;;
54121;SDS011;40029;58.708;50.190;2023-03-08T08:26:37;17.98;;;9.40;;
54121;SDS011;40029;58.708;50.190;2023-03-08T08:29:09;25.25;;;10.68;;
54121;SDS011;40029;58.708;50.190;2023-03-08T08:31:40;17.75;;;7.97;;
54121;SDS011;40029;58.708;50.190;2023-03-08T08:34:11;19.60;;;8.05;;
54121;SDS011;40029;58.708;50.190;2023-03-08T08:36:42;17.33;;;7.90;;
54121;SDS011;40029;58.708;50.190;2023-03-08T08:39:13;17.63;;;8.00;;
54121;SDS011;40029;58.708;50.190;2023-03-08T08:41:44;25.90;;;10.60;;
54121;SDS011;40029;58.708;50.190;2023-03-08T08:44:15;15.02;;;7.05;;
54121;SDS011;40029;58.708;50.190;2023-03-08T08:47:05;10.85;;;5.80;;
54121;SDS011;40029;58.708;50.190;2023-03-08T08:49:36;11.63;;;5.88;;
54121;SDS011;40029;58.708;50.190;2023-03-08T08:52:25;9.48;;;5.75;;
54121;SDS011;40029;58.708;50.190;2023-03-08T08:54:56;9.73;;;4.90;;
54121;SDS011;40029;58.708;50.190;2023-03-08T08:57:28;10.32;;;5.18;;
54121;SDS011;40029;58.708;50.190;2023-03-08T08:59:59;7.50;;;4.63;;
54121;SDS011;40029;58.708;50.190;2023-03-08T09:02:30;9.55;;;5.55;;
54121;SDS011;40029;58.708;50.190;2023-03-08T09:05:01;12.02;;;5.93;;
54121;SDS011;40029;58.708;50.190;2023-03-08T09:07:33;11.13;;;5.22;;
54121;SDS011;40029;58.708;50.190;2023-03-08T09:10:04;12.85;;;5.80;;
54121;SDS011;40029;58.708;50.190;2023-03-08T09:12:36;16.35;;;6.97;;
54121;SDS011;40029;58.708;50.190;2023-03-08T09:15:08;14.13;;;6.75;;
54121;SDS011;40029;58.708;50.190;2023-03-08T09:17:41;15.18;;;6.57;;
54121;SDS011;40029;58.708;50.190;2023-03-08T09:20:12;12.07;;;6.78;;
54121;SDS011;40029;58.708;50.190;2023-03-08T09:22:44;21.17;;;7.57;;
54121;SDS011;40029;58.708;50.190;2023-03-08T09:25:15;13.95;;;7.20;;
54121;SDS011;40029;58.708;50.190;2023-03-08T09:27:49;10.68;;;6.07;;
54121;SDS011;40029;58.708;50.190;2023-03-08T09:30:39;10.02;;;6.20;;
54121;SDS011;40029;58.708;50.190;2023-03-08T09:33:10;11.27;;;5.50;;
54121;SDS011;40029;58.708;50.190;2023-03-08T09:35:41;19.52;;;7.07;;
54121;SDS011;40029;58.708;50.190;2023-03-08T09:38:12;13.15;;;5.78;;
54121;SDS011;40029;58.708;50.190;2023-03-08T09:40:46;11.13;;;6.22;;
54121;SDS011;40029;58.708;50.190;2023-03-08T09:43:29;14.77;;;6.28;;
54121;SDS011;40029;58.708;50.190;2023-03-08T09:46:13;10.30;;;4.85;;
54121;SDS011;40029;58.708;50.190;2023-03-08T09:48:52;7.25;;;4.60;;
54121;SDS011;40029;58.708;50.190;2023-03-08T09:51:33;8.20;;;4.70;;
54121;SDS011;40029;58.708;50.190;2023-03-08T09:54:08;13.85;;;7.40;;
54121;SDS011;40029;58.708;50.190;2023-03-08T09:56:50;16.55;;;6.70;;
54121;SDS011;40029;58.708;50.190;2023-03-08T09:59:24;16.45;;;7.32;;
54121;SDS011;40029;58.708;50.190;2023-03-08T10:05:10;17.73;;;7.82;;
54121;SDS011;40029;58.708;50.190;2023-03-08T10:08:20;20.20;;;10.45;;
54121;SDS011;40029;58.708;50.190;2023-03-08T10:11:05;13.27;;;8.10;;
54121;SDS011;40029;58.708;50.190;2023-03-08T10:13:48;12.00;;;6.07;;
54121;SDS011;40029;58.708;50.190;2023-03-08T10:16:27;11.63;;;5.95;;
54121;SDS011;40029;58.708;50.190;2023-03-08T10:21:51;11.55;;;5.18;;
54121;SDS011;40029;58.708;50.190;2023-03-08T10:25:14;11.20;;;5.47;;
54121;SDS011;40029;58.708;50.190;2023-03-08T10:27:43;9.73;;;5.03;;
54121;SDS011;40029;58.708;50.190;2023-03-08T10:30:18;12.75;;;6.03;;
54121;SDS011;40029;58.708;50.190;2023-03-08T10:32:52;10.55;;;4.10;;
54121;SDS011;40029;58.708;50.190;2023-03-08T10:35:33;9.75;;;4.40;;
54121;SDS011;40029;58.708;50.190;2023-03-08T10:38:15;7.57;;;4.28;;
54121;SDS011;40029;58.708;50.190;2023-03-08T10:40:46;17.10;;;6.05;;
54121;SDS011;40029;58.708;50.190;2023-03-08T10:43:25;9.98;;;5.47;;
54121;SDS011;40029;58.708;50.190;2023-03-08T10:46:11;9.68;;;5.35;;
54121;SDS011;40029;58.708;50.190;2023-03-08T10:48:44;6.63;;;4.00;;
54121;SDS011;40029;58.708;50.190;2023-03-08T10:53:53;6.50;;;3.88;;
54121;SDS011;40029;58.708;50.190;2023-03-08T10:59:31;13.05;;;6.45;;
54121;SDS011;40029;58.708;50.190;2023-03-08T11:04:54;9.27;;;4.47;;
54121;SDS011;40029;58.708;50.190;2023-03-08T11:07:28;9.73;;;5.70;;
54121;SDS011;40029;58.708;50.190;2023-03-08T11:10:14;10.73;;;5.15;;
54121;SDS011;40029;58.708;50.190;2023-03-08T11:12:46;7.47;;;4.85;;
54121;SDS011;40029;58.708;50.190;2023-03-08T11:15:18;5.45;;;3.58;;
54121;SDS011;40029;58.708;50.190;2023-03-08T11:18:02;9.57;;;4.05;;
54121;SDS011;40029;58.708;50.190;2023-03-08T11:20:48;7.47;;;4.22;;
54121;SDS011;40029;58.708;50.190;2023-03-08T11:23:25;8.00;;;3.65;;
54121;SDS011;40029;58.708;50.190;2023-03-08T11:31:41;7.65;;;4.05;;
54121;SDS011;40029;58.708;50.190;2023-03-08T11:45:54;6.97;;;4.05;;
54121;SDS011;40029;58.708;50.190;2023-03-08T11:57:15;17.58;;;8.93;;
54121;SDS011;40029;58.708;50.190;2023-03-08T12:00:18;19.42;;;9.55;;
54121;SDS011;40029;58.708;50.190;2023-03-08T12:02:58;30.48;;;12.63;;
54121;SDS011;40029;58.708;50.190;2023-03-08T12:05:37;10.38;;;5.72;;
54121;SDS011;40029;58.708;50.190;2023-03-08T12:08:33;8.30;;;5.57;;
54121;SDS011;40029;58.708;50.190;2023-03-08T12:14:43;5.15;;;2.95;;
54121;SDS011;40029;58.708;50.190;2023-03-08T12:17:19;3.15;;;2.40;;
54121;SDS011;40029;58.708;50.190;2023-03-08T12:19:54;8.77;;;4.03;;
54121;SDS011;40029;58.708;50.190;2023-03-08T12:28:30;18.38;;;7.32;;
54121;SDS011;40029;58.708;50.190;2023-03-08T12:31:21;9.88;;;5.38;;
54121;SDS011;40029;58.708;50.190;2023-03-08T12:34:28;5.05;;;2.88;;
54121;SDS011;40029;58.708;50.190;2023-03-08T12:36:59;4.50;;;2.95;;
54121;SDS011;40029;58.708;50.190;2023-03-08T12:39:31;5.80;;;3.58;;
54121;SDS011;40029;58.708;50.190;2023-03-08T12:44:38;3.35;;;2.55;;
54121;SDS011;40029;58.708;50.190;2023-03-08T12:49:45;5.95;;;3.85;;
54121;SDS011;40029;58.708;50.190;2023-03-08T12:54:58;6.88;;;3.80;;
54121;SDS011;40029;58.708;50.190;2023-03-08T12:57:33;5.72;;;3.63;;
54121;SDS011;40029;58.708;50.190;2023-03-08T13:05:44;8.70;;;3.63;;
54121;SDS011;40029;58.708;50.190;2023-03-08T13:14:02;7.32;;;3.75;;
54121;SDS011;40029;58.708;50.190;2023-03-08T13:16:38;7.13;;;5.05;;
54121;SDS011;40029;58.708;50.190;2023-03-08T13:21:48;7.80;;;3.88;;
54121;SDS011;40029;58.708;50.190;2023-03-08T13:33:22;4.60;;;3.13;;
54121;SDS011;40029;58.708;50.190;2023-03-08T13:38:59;8.85;;;3.70;;
54121;SDS011;40029;58.708;50.190;2023-03-08T13:44:16;7.40;;;3.88;;
54121;SDS011;40029;58.708;50.190;2023-03-08T13:46:51;4.97;;;3.63;;
54121;SDS011;40029;58.708;50.190;2023-03-08T13:49:26;8.40;;;4.35;;
54121;SDS011;40029;58.708;50.190;2023-03-08T13:52:02;10.35;;;4.65;;
54121;SDS011;40029;58.708;50.190;2023-03-08T13:54:44;7.53;;;3.45;;
54121;SDS011;40029;58.708;50.190;2023-03-08T13:57:29;6.97;;;4.00;;
54121;SDS011;40029;58.708;50.190;2023-03-08T14:02:55;5.80;;;3.65;;
54121;SDS011;40029;58.708;50.190;2023-03-08T14:05:31;7.43;;;3.65;;
54121;SDS011;40029;58.708;50.190;2023-03-08T14:08:22;6.70;;;3.33;;
54121;SDS011;40029;58.708;50.190;2023-03-08T14:10:59;8.95;;;4.38;;
54121;SDS011;40029;58.708;50.190;2023-03-08T14:13:36;13.00;;;6.03;;
54121;SDS011;40029;58.708;50.190;2023-03-08T14:16:08;22.27;;;8.02;;
54121;SDS011;40029;58.708;50.190;2023-03-08T14:18:54;46.50;;;15.82;;
54121;SDS011;40029;58.708;50.190;2023-03-08T14:21:26;43.72;;;16.13;;
54121;SDS011;40029;58.708;50.190;2023-03-08T14:24:00;42.40;;;13.55;;
54121;SDS011;40029;58.708;50.190;2023-03-08T14:26:39;34.47;;;12.55;;
54121;SDS011;40029;58.708;50.190;2023-03-08T14:32:55;26.65;;;9.70;;
54121;SDS011;40029;58.708;50.190;2023-03-08T14:34:43;17.70;;;7.43;;
54121;SDS011;40029;58.708;50.190;2023-03-08T14:42:54;45.13;;;15.25;;
54121;SDS011;40029;58.708;50.190;2023-03-08T14:48:29;60.60;;;16.20;;
54121;SDS011;40029;58.708;50.190;2023-03-08T14:54:04;61.83;;;19.70;;
54121;SDS011;40029;58.708;50.190;2023-03-08T14:57:17;57.78;;;18.40;;
54121;SDS011;40029;58.708;50.190;2023-03-08T14:59:51;60.60;;;18.98;;
54121;SDS011;40029;58.708;50.190;2023-03-08T15:02:25;48.83;;;17.45;;
54121;SDS011;40029;58.708;50.190;2023-03-08T15:04:56;22.42;;;9.25;;
54121;SDS011;40029;58.708;50.190;2023-03-08T15:07:28;15.05;;;6.43;;
54121;SDS011;40029;58.708;50.190;2023-03-08T15:13:01;9.95;;;5.75;;
54121;SDS011;40029;58.708;50.190;2023-03-08T15:15:34;15.55;;;6.15;;
54121;SDS011;40029;58.708;50.190;2023-03-08T15:18:05;16.38;;;6.57;;
54121;SDS011;40029;58.708;50.190;2023-03-08T15:20:37;11.35;;;6.60;;
54121;SDS011;40029;58.708;50.190;2023-03-08T15:23:18;15.57;;;7.20;;
54121;SDS011;40029;58.708;50.190;2023-03-08T15:25:52;15.77;;;7.60;;
54121;SDS011;40029;58.708;50.190;2023-03-08T15:28:23;19.58;;;7.63;;
54121;SDS011;40029;58.708;50.190;2023-03-08T15:30:55;26.98;;;10.73;;
54121;SDS011;40029;58.708;50.190;2023-03-08T15:33:26;45.92;;;14.68;;
54121;SDS011;40029;58.708;50.190;2023-03-08T15:35:57;56.90;;;16.92;;
54121;SDS011;40029;58.708;50.190;2023-03-08T15:38:28;39.78;;;14.77;;
54121;SDS011;40029;58.708;50.190;2023-03-08T15:40:59;85.25;;;28.27;;
54121;SDS011;40029;58.708;50.190;2023-03-08T15:43:30;88.70;;;29.90;;
54121;SDS011;40029;58.708;50.190;2023-03-08T15:46:02;71.00;;;25.83;;
54121;SDS011;40029;58.708;50.190;2023-03-08T15:48:33;48.80;;;17.42;;
54121;SDS011;40029;58.708;50.190;2023-03-08T15:51:05;49.80;;;18.33;;
54121;SDS011;40029;58.708;50.190;2023-03-08T15:53:55;45.97;;;17.17;;
54121;SDS011;40029;58.708;50.190;2023-03-08T15:56:26;52.30;;;21.10;;
54121;SDS011;40029;58.708;50.190;2023-03-08T15:58:57;52.15;;;19.83;;
54121;SDS011;40029;58.708;50.190;2023-03-08T16:01:47;44.78;;;19.00;;
54121;SDS011;40029;58.708;50.190;2023-03-08T16:04:36;42.40;;;15.60;;
54121;SDS011;40029;58.708;50.190;2023-03-08T16:07:07;28.13;;;12.27;;
54121;SDS011;40029;58.708;50.190;2023-03-08T16:09:38;38.33;;;13.20;;
54121;SDS011;40029;58.708;50.190;2023-03-08T16:12:10;43.40;;;15.82;;
54121;SDS011;40029;58.708;50.190;2023-03-08T16:14:45;42.78;;;15.45;;
54121;SDS011;40029;58.708;50.190;2023-03-08T16:17:17;29.38;;;10.60;;
54121;SDS011;40029;58.708;50.190;2023-03-08T16:19:48;23.85;;;9.90;;
54121;SDS011;40029;58.708;50.190;2023-03-08T16:22:19;35.10;;;14.82;;
54121;SDS011;40029;58.708;50.190;2023-03-08T16:25:09;30.10;;;13.05;;
54121;SDS011;40029;58.708;50.190;2023-03-08T16:27:40;27.33;;;13.40;;
54121;SDS011;40029;58.708;50.190;2023-03-08T16:30:11;30.65;;;13.02;;
54121;SDS011;40029;58.708;50.190;2023-03-08T16:32:43;39.38;;;16.55;;
54121;SDS011;40029;58.708;50.190;2023-03-08T16:35:14;45.03;;;17.42;;
54121;SDS011;40029;58.708;50.190;2023-03-08T16:37:45;45.70;;;17.25;;
54121;SDS011;40029;58.708;50.190;2023-03-08T16:40:16;39.95;;;16.83;;
54121;SDS011;40029;58.708;50.190;2023-03-08T16:42:51;47.70;;;16.88;;
54121;SDS011;40029;58.708;50.190;2023-03-08T16:45:22;35.70;;;13.98;;
54121;SDS011;40029;58.708;50.190;2023-03-08T16:47:53;34.67;;;14.40;;
54121;SDS011;40029;58.708;50.190;2023-03-08T16:50:24;43.17;;;15.38;;
54121;SDS011;40029;58.708;50.190;2023-03-08T16:52:57;44.90;;;15.30;;
54121;SDS011;40029;58.708;50.190;2023-03-08T16:55:28;39.17;;;14.52;;
54121;SDS011;40029;58.708;50.190;2023-03-08T16:57:59;35.63;;;13.88;;
54121;SDS011;40029;58.708;50.190;2023-03-08T17:00:30;35.75;;;12.60;;
54121;SDS011;40029;58.708;50.190;2023-03-08T17:03:01;44.45;;;14.68;;